Time;durP1;ratioP1;P1;durP2;ratioP2;P2;SDS_P1;SDS_P2;PMS_P1;PMS_P2;Temp;Humidity;BMP_temperature;BMP_pressure;BME280_temperature;BME280_humidity;BME280_pressure;Samples;Min_cycle;Max_cycle;Signal;HPM_P1;HPM_P2
2021/10/15 00:00:36;;;;;;;35.10;20.60;;;;;;;3.07;87.60;98094.46;116351;1183;60312;-68
2021/10/15 00:03:06;;;;;;;27.40;19.40;;;;;;;3.07;87.33;98094.22;116498;1182;72197;-67
2021/10/15 00:05:37;;;;;;;25.80;18.40;;;;;;;3.06;87.01;98089.66;116481;1182;68414;-70
2021/10/15 00:08:07;;;;;;;29.30;20.00;;;;;;;3.03;87.19;98086.41;116505;1181;68491;-68
2021/10/15 00:10:37;;;;;;;28.00;18.40;;;;;;;3.05;87.55;98085.56;116456;1182;60321;-68
2021/10/15 00:13:07;;;;;;;33.80;22.10;;;;;;;3.10;87.53;98091.04;116497;1179;60367;-67
2021/10/15 00:15:36;;;;;;;33.90;21.50;;;;;;;3.16;87.57;98091.40;116449;1183;71195;-67
2021/10/15 00:18:06;;;;;;;28.90;18.20;;;;;;;3.22;87.50;98088.41;116551;1183;68855;-68
2021/10/15 00:20:36;;;;;;;28.50;18.60;;;;;;;3.28;87.43;98086.15;116397;1182;69151;-67
2021/10/15 00:23:06;;;;;;;25.10;17.00;;;;;;;3.33;87.35;98081.25;116507;1181;60371;-68
2021/10/15 00:25:36;;;;;;;26.40;17.60;;;;;;;3.35;87.41;98076.34;116524;1183;60338;-67
2021/10/15 00:28:06;;;;;;;27.90;18.70;;;;;;;3.37;87.07;98079.64;116444;1182;72200;-69
2021/10/15 00:30:36;;;;;;;27.40;18.70;;;;;;;3.38;86.61;98075.19;116598;1181;66703;-68
2021/10/15 00:33:06;;;;;;;26.10;17.40;;;;;;;3.38;87.14;98071.66;116436;1182;69111;-71
2021/10/15 00:35:35;;;;;;;26.30;18.30;;;;;;;3.38;87.09;98069.48;116368;1183;60805;-66
2021/10/15 00:38:05;;;;;;;29.50;19.40;;;;;;;3.40;86.76;98064.56;116515;1181;60714;-75
2021/10/15 00:40:35;;;;;;;27.80;18.10;;;;;;;3.41;87.03;98060.83;116448;1182;72210;-70
2021/10/15 00:43:04;;;;;;;29.00;18.60;;;;;;;3.40;87.21;98050.96;116529;1173;68409;-73
2021/10/15 00:45:33;;;;;;;29.70;19.50;;;;;;;3.40;87.03;98048.21;116351;1182;68259;-65
2021/10/15 00:48:03;;;;;;;32.40;21.80;;;;;;;3.40;86.45;98052.36;116090;1181;60404;-68
2021/10/15 00:50:33;;;;;;;29.40;20.90;;;;;;;3.38;86.29;98056.49;116452;1182;60356;-66
2021/10/15 00:53:04;;;;;;;32.80;21.60;;;;;;;3.38;86.34;98064.63;116397;1182;72181;-73
2021/10/15 00:55:34;;;;;;;32.10;21.00;;;;;;;3.39;86.31;98066.11;116480;1184;68331;-71
2021/10/15 00:58:04;;;;;;;;;;;;;;;3.40;85.88;98067.14;116569;1180;69178;-74
2021/10/15 01:00:34;;;;;;;26.40;18.30;;;;;;;3.39;85.98;98066.52;116500;1180;60348;-69
2021/10/15 01:03:05;;;;;;;29.10;18.20;;;;;;;3.40;85.69;98063.77;116491;1181;60372;-68
2021/10/15 01:05:35;;;;;;;24.70;16.60;;;;;;;3.40;85.63;98065.20;116672;1180;71255;-68
2021/10/15 01:08:05;;;;;;;26.50;17.50;;;;;;;3.41;85.43;98068.27;116371;1182;67432;-69
2021/10/15 01:10:35;;;;;;;24.90;16.60;;;;;;;3.41;85.32;98068.90;116438;1183;70565;-69
2021/10/15 01:13:04;;;;;;;23.70;15.60;;;;;;;3.43;84.95;98065.32;116546;1182;60374;-72
2021/10/15 01:15:34;;;;;;;25.40;16.10;;;;;;;3.43;84.75;98058.74;116448;1181;60308;-67
2021/10/15 01:18:11;;;;;;;;;;;;;;;3.43;85.09;98056.17;116534;1181;72056;-74
2021/10/15 01:20:43;;;;;;;24.40;15.50;;;;;;;3.41;85.37;98055.42;116543;1182;68219;-69
2021/10/15 01:23:13;;;;;;;18.80;12.60;;;;;;;3.40;85.18;98052.13;116569;1183;70543;-67
2021/10/15 01:25:44;;;;;;;18.80;12.40;;;;;;;3.37;85.41;98052.58;116538;1181;60412;-66
2021/10/15 01:28:14;;;;;;;20.30;13.70;;;;;;;3.34;85.39;98050.83;116499;1181;60352;-68
2021/10/15 01:30:45;;;;;;;20.30;14.10;;;;;;;3.33;85.05;98046.36;116505;1183;72205;-73
2021/10/15 01:33:15;;;;;;;20.80;13.80;;;;;;;3.31;85.03;98049.56;116519;1180;67707;-69
2021/10/15 01:35:46;;;;;;;24.60;14.90;;;;;;;3.29;85.50;98052.67;116432;1183;69216;-73
2021/10/15 01:38:17;;;;;;;24.30;15.60;;;;;;;3.30;85.89;98054.48;116574;1182;60709;-71
2021/10/15 01:40:48;;;;;;;;;;;;;;;3.31;85.88;98060.13;116532;1180;60422;-67
2021/10/15 01:43:25;;;;;;;21.90;15.20;;;;;;;3.32;85.87;98062.63;116461;1182;72167;-73
2021/10/15 01:45:57;;;;;;;27.30;15.80;;;;;;;3.33;85.78;98061.46;116502;1180;68394;-68
2021/10/15 01:48:27;;;;;;;23.50;15.10;;;;;;;3.34;85.54;98056.48;116423;1182;69233;-67
2021/10/15 01:50:58;;;;;;;;;;;;;;;3.35;86.03;98052.88;116473;1182;60340;-67
2021/10/15 01:53:30;;;;;;;24.60;15.30;;;;;;;3.36;85.92;98049.90;116525;1180;60333;-70
2021/10/15 01:56:01;;;;;;;22.00;14.60;;;;;;;3.35;85.62;98050.44;116564;1182;71424;-67
2021/10/15 01:58:30;;;;;;;22.40;15.20;;;;;;;3.34;85.34;98048.02;116486;1183;67730;-72
2021/10/15 02:01:00;;;;;;;25.10;15.70;;;;;;;3.32;85.33;98045.89;116473;1180;69302;-67
2021/10/15 02:03:30;;;;;;;23.70;15.90;;;;;;;3.29;85.47;98047.52;116511;1180;60356;-69
2021/10/15 02:06:00;;;;;;;23.80;16.40;;;;;;;3.27;85.42;98044.45;116349;1184;60343;-72
2021/10/15 02:08:29;;;;;;;21.50;15.40;;;;;;;3.27;85.44;98040.70;116367;1183;71399;-68
2021/10/15 02:10:59;;;;;;;19.10;14.30;;;;;;;3.24;85.40;98038.01;116507;1182;68528;-67
2021/10/15 02:13:28;;;;;;;23.40;15.40;;;;;;;3.22;85.35;98028.50;116464;1182;68383;-72
2021/10/15 02:15:59;;;;;;;20.80;14.90;;;;;;;3.18;85.23;98025.20;116376;1183;60367;-68
2021/10/15 02:18:28;;;;;;;22.60;15.70;;;;;;;3.15;85.40;98027.98;116526;1182;60324;-67
2021/10/15 02:20:58;;;;;;;24.90;16.60;;;;;;;3.08;85.47;98027.30;116499;1182;72060;-66
2021/10/15 02:23:27;;;;;;;23.40;15.70;;;;;;;3.07;85.62;98032.06;116445;1182;67457;-67
2021/10/15 02:25:56;;;;;;;23.80;15.70;;;;;;;3.02;85.68;98030.27;116469;1183;69232;-66
2021/10/15 02:28:26;;;;;;;25.40;17.20;;;;;;;3.03;85.71;98028.01;116477;1182;60417;-69
2021/10/15 02:30:56;;;;;;;27.70;15.50;;;;;;;3.03;85.61;98028.02;116487;1183;60358;-66
2021/10/15 02:33:26;;;;;;;27.80;17.60;;;;;;;3.04;85.45;98025.84;116460;1182;72002;-70
2021/10/15 02:35:58;;;;;;;27.90;17.30;;;;;;;3.06;85.36;98024.84;116491;1182;67440;-69
2021/10/15 02:38:28;;;;;;;26.00;17.00;;;;;;;3.04;85.49;98021.61;116464;1182;69201;-75
2021/10/15 02:40:59;;;;;;;26.30;16.60;;;;;;;3.01;85.55;98023.62;116481;1182;60374;-69
2021/10/15 02:43:28;;;;;;;30.90;18.80;;;;;;;3.00;85.80;98020.02;116354;1184;60373;-67
2021/10/15 02:45:58;;;;;;;27.30;19.70;;;;;;;3.01;85.02;98023.54;116463;1182;71383;-69
2021/10/15 02:48:27;;;;;;;32.90;21.50;;;;;;;3.01;85.49;98027.29;116487;1183;68566;-66
2021/10/15 02:50:57;;;;;;;29.20;19.50;;;;;;;3.00;85.36;98030.10;116452;1184;67268;-73
2021/10/15 02:53:26;;;;;;;30.30;20.80;;;;;;;3.00;86.40;98028.99;116475;1181;60337;-67
2021/10/15 02:55:56;;;;;;;46.60;29.90;;;;;;;3.02;86.40;98027.84;116455;1182;60346;-72
2021/10/15 02:58:26;;;;;;;23.10;15.60;;;;;;;3.04;86.49;98030.67;116453;1183;72261;-68
2021/10/15 03:00:55;;;;;;;23.00;15.70;;;;;;;3.02;86.52;98030.74;116480;1182;67527;-70
2021/10/15 03:03:25;;;;;;;26.50;14.90;;;;;;;3.03;86.45;98026.44;116211;1184;70396;-71
2021/10/15 03:05:54;;;;;;;21.90;15.50;;;;;;;3.04;86.27;98024.66;116479;1182;59802;-67
2021/10/15 03:08:23;;;;;;;24.60;15.80;;;;;;;3.06;85.79;98023.44;116500;1183;60363;-67
2021/10/15 03:10:53;;;;;;;28.10;19.00;;;;;;;3.10;85.30;98027.85;116447;1184;70327;-68
2021/10/15 03:13:23;;;;;;;32.50;21.60;;;;;;;3.07;85.31;98026.35;116408;1184;68598;-73
2021/10/15 03:15:52;;;;;;;29.10;20.40;;;;;;;3.02;85.22;98034.18;116470;1182;69018;-74
2021/10/15 03:18:22;;;;;;;27.90;18.90;;;;;;;2.93;86.05;98037.08;116323;1182;60357;-67
2021/10/15 03:20:52;;;;;;;32.70;21.60;;;;;;;2.90;86.24;98023.29;116454;1183;60373;-71
2021/10/15 03:23:21;;;;;;;28.30;20.00;;;;;;;2.87;85.80;98017.93;116412;1184;71185;-70
2021/10/15 03:25:50;;;;;;;32.80;21.50;;;;;;;2.85;85.82;98017.52;116484;1182;67552;-68
2021/10/15 03:28:21;;;;;;;;;;;;;;;2.83;85.49;98017.26;116578;1181;68471;-68
2021/10/15 03:30:51;;;;;;;26.80;17.40;;;;;;;2.81;85.73;98018.88;116436;1182;60313;-70
2021/10/15 03:33:21;;;;;;;30.90;19.50;;;;;;;2.81;85.84;98025.20;116476;1182;60284;-73
2021/10/15 03:35:51;;;;;;;24.40;17.20;;;;;;;2.81;85.70;98027.55;116549;1182;72226;-70
2021/10/15 03:38:20;;;;;;;23.40;16.00;;;;;;;2.80;85.63;98027.23;116484;1182;66608;-69
2021/10/15 03:40:49;;;;;;;21.30;14.10;;;;;;;2.78;85.21;98027.45;116501;1182;68323;-72
2021/10/15 03:43:19;;;;;;;20.60;14.30;;;;;;;2.76;85.12;98032.27;116499;1182;60351;-67
2021/10/15 03:45:48;;;;;;;25.30;18.50;;;;;;;2.74;84.90;98031.39;116439;1183;60334;-68
2021/10/15 03:48:17;;;;;;;23.60;15.70;;;;;;;2.72;84.84;98028.41;116503;1182;71364;-66
2021/10/15 03:50:46;;;;;;;20.80;14.00;;;;;;;2.69;84.73;98025.80;116384;1183;66787;-66
2021/10/15 03:53:16;;;;;;;23.60;14.20;;;;;;;2.67;84.55;98028.42;116439;1181;68482;-67
2021/10/15 03:55:45;;;;;;;17.70;12.30;;;;;;;2.66;84.37;98027.70;116448;1182;60308;-68
2021/10/15 03:58:14;;;;;;;19.60;12.40;;;;;;;2.63;84.40;98021.58;116510;1182;60363;-67
2021/10/15 04:00:44;;;;;;;22.10;14.30;;;;;;;2.55;84.68;98025.09;116468;1181;72843;-66
2021/10/15 04:03:13;;;;;;;22.40;13.90;;;;;;;2.49;84.81;98029.84;116444;1182;68454;-69
2021/10/15 04:05:42;;;;;;;20.50;14.60;;;;;;;2.45;84.86;98038.00;116462;1182;69618;-67
2021/10/15 04:08:11;;;;;;;20.50;13.90;;;;;;;2.40;85.06;98040.61;116403;1182;60373;-70
2021/10/15 04:10:41;;;;;;;20.00;12.70;;;;;;;2.36;85.24;98036.19;116452;1181;60367;-69
2021/10/15 04:13:11;;;;;;;24.30;14.20;;;;;;;2.32;85.00;98030.12;116421;1182;71330;-69
2021/10/15 04:15:40;;;;;;;19.40;13.60;;;;;;;2.29;85.11;98029.60;116459;1182;67660;-66
2021/10/15 04:18:09;;;;;;;21.70;13.50;;;;;;;2.26;85.21;98027.84;116454;1183;67539;-66
2021/10/15 04:20:39;;;;;;;20.60;13.30;;;;;;;2.21;85.56;98030.14;116442;1182;60361;-67
2021/10/15 04:23:09;;;;;;;21.20;14.80;;;;;;;2.19;85.65;98039.23;116439;1183;60321;-69
2021/10/15 04:25:38;;;;;;;20.30;13.90;;;;;;;2.16;85.59;98034.13;116350;1184;72269;-67
2021/10/15 04:28:07;;;;;;;21.70;14.40;;;;;;;2.16;85.17;98032.79;116418;1182;68408;-71
2021/10/15 04:30:37;;;;;;;21.20;14.20;;;;;;;2.16;85.42;98037.78;116456;1182;69905;-72
2021/10/15 04:33:07;;;;;;;21.90;14.20;;;;;;;2.17;85.61;98038.83;116394;1182;60358;-67
2021/10/15 04:35:36;;;;;;;17.50;11.80;;;;;;;2.20;85.37;98041.20;116472;1181;60297;-73
2021/10/15 04:38:05;;;;;;;20.90;13.80;;;;;;;2.20;85.85;98037.77;116389;1182;71405;-69
2021/10/15 04:40:34;;;;;;;20.40;13.60;;;;;;;2.20;85.72;98034.24;116417;1182;68466;-68
2021/10/15 04:43:04;;;;;;;20.80;14.40;;;;;;;2.18;85.65;98030.48;116295;1184;69232;-74
2021/10/15 04:45:33;;;;;;;17.00;11.20;;;;;;;2.15;86.09;98029.80;116443;1182;60388;-75
2021/10/15 04:48:03;;;;;;;19.20;13.10;;;;;;;2.12;85.95;98032.42;116398;1184;60336;-72
2021/10/15 04:50:36;;;;;;;18.20;11.30;;;;;;;2.11;85.87;98031.94;116416;1182;71346;-74
2021/10/15 04:53:07;;;;;;;19.40;12.00;;;;;;;2.10;85.98;98028.73;116423;1183;68393;-70
2021/10/15 04:55:36;;;;;;;19.00;12.30;;;;;;;2.08;86.27;98028.39;116520;1182;68672;-72
2021/10/15 04:58:05;;;;;;;23.40;12.80;;;;;;;2.08;86.45;98024.10;116449;1183;60361;-75
2021/10/15 05:00:36;;;;;;;20.90;14.10;;;;;;;2.10;86.49;98024.28;116402;1182;60348;-71
2021/10/15 05:03:05;;;;;;;19.00;13.20;;;;;;;2.12;86.41;98024.38;116387;1183;72788;-68
2021/10/15 05:05:39;;;;;;;22.10;14.70;;;;;;;2.10;86.48;98024.29;116424;1183;68526;-75
2021/10/15 05:08:10;;;;;;;20.40;13.60;;;;;;;2.13;86.13;98024.71;116349;1184;69342;-71
2021/10/15 05:10:41;;;;;;;22.40;14.00;;;;;;;2.16;85.99;98025.39;116408;1182;60365;-73
2021/10/15 05:13:13;;;;;;;29.90;15.90;;;;;;;2.22;86.59;98019.29;116472;1183;60363;-73
2021/10/15 05:15:46;;;;;;;23.80;13.60;;;;;;;2.30;86.01;98017.42;116381;1182;72103;-71
2021/10/15 05:18:15;;;;;;;25.00;14.40;;;;;;;2.38;86.14;98014.03;116448;1182;68175;-67
2021/10/15 05:20:45;;;;;;;29.50;20.30;;;;;;;2.49;86.12;98021.02;116418;1183;69327;-74
2021/10/15 05:23:14;;;;;;;38.10;25.10;;;;;;;2.58;86.00;98024.88;116403;1182;60329;-67
2021/10/15 05:25:43;;;;;;;34.70;23.20;;;;;;;2.64;85.91;98024.79;116432;1181;60355;-71
2021/10/15 05:28:12;;;;;;;37.30;24.60;;;;;;;2.66;85.87;98019.11;116413;1181;72196;-71
2021/10/15 05:30:42;;;;;;;33.10;22.10;;;;;;;2.70;85.63;98021.20;116250;1184;68413;-73
2021/10/15 05:33:11;;;;;;;36.20;23.30;;;;;;;2.75;86.24;98021.10;116432;1183;68518;-72
2021/10/15 05:35:40;;;;;;;32.40;23.60;;;;;;;2.86;86.22;98015.81;116421;1182;60326;-68
2021/10/15 05:38:09;;;;;;;46.10;30.00;;;;;;;2.89;85.35;98021.16;116445;1183;60376;-73
2021/10/15 05:40:38;;;;;;;49.00;33.00;;;;;;;2.85;84.77;98021.98;116412;1184;72380;-75
2021/10/15 05:43:07;;;;;;;45.00;28.60;;;;;;;2.80;84.84;98017.55;116408;1184;67836;-72
2021/10/15 05:45:37;;;;;;;40.70;26.90;;;;;;;2.81;84.93;98011.30;116390;1183;68509;-68
2021/10/15 05:48:06;;;;;;;40.80;27.90;;;;;;;2.83;85.10;98019.84;116429;1182;60768;-73
2021/10/15 05:50:35;;;;;;;38.60;26.60;;;;;;;2.87;85.13;98025.28;116413;1182;60337;-75
2021/10/15 05:53:17;;;;;;;33.10;23.20;;;;;;;2.97;85.47;98023.97;116403;1184;72203;-69
2021/10/15 05:58:51;;;;;;;34.30;22.60;;;;;;;3.20;85.39;98014.80;116265;1184;69269;-68
2021/10/15 06:01:24;;;;;;;29.90;20.70;;;;;;;3.33;85.55;98012.83;116349;1183;60385;-68
2021/10/15 06:04:49;;;;;;;33.80;23.10;;;;;;;3.54;85.22;98015.09;116416;1174;60416;-68
2021/10/15 06:15:35;;;;;;;29.50;17.50;;;;;;;3.76;83.71;98024.95;116326;1184;60411;-72
2021/10/15 06:18:19;;;;;;;23.40;16.70;;;;;;;3.80;83.27;98018.67;116410;1182;60772;-71
2021/10/15 06:20:49;;;;;;;28.70;20.10;;;;;;;3.87;83.34;98015.09;116413;1181;72203;-72
2021/10/15 06:23:20;;;;;;;27.40;18.80;;;;;;;3.94;83.00;98018.11;116357;1184;67689;-70
2021/10/15 06:25:49;;;;;;;27.00;18.20;;;;;;;4.02;83.05;98016.29;116320;1183;69333;-69
2021/10/15 06:28:18;;;;;;;25.20;17.00;;;;;;;4.12;82.65;98014.14;116398;1184;60802;-71
2021/10/15 06:30:47;;;;;;;24.60;16.90;;;;;;;4.21;82.05;98012.70;116422;1182;60348;-71
2021/10/15 06:33:16;;;;;;;26.00;18.10;;;;;;;4.31;81.85;98007.43;116419;1182;72202;-71
2021/10/15 06:35:45;;;;;;;22.20;16.20;;;;;;;4.41;81.54;98005.90;116374;1183;68463;-69
2021/10/15 06:38:15;;;;;;;24.00;16.10;;;;;;;4.48;80.97;98005.15;116205;1184;69303;-70
2021/10/15 06:40:46;;;;;;;20.60;14.70;;;;;;;4.55;81.18;98005.34;116454;1183;60363;-71
2021/10/15 06:43:15;;;;;;;21.80;16.80;;;;;;;4.63;81.27;98008.56;116405;1182;60423;-71
2021/10/15 06:45:43;;;;;;;24.80;18.10;;;;;;;4.69;81.07;98008.06;116385;1184;71250;-68
2021/10/15 06:48:12;;;;;;;25.00;17.60;;;;;;;4.79;81.08;98005.41;116378;1183;68375;-74
2021/10/15 06:50:42;;;;;;;28.30;18.90;;;;;;;4.87;81.11;98008.10;116357;1183;69236;-69
2021/10/15 06:53:11;;;;;;;33.80;21.60;;;;;;;4.98;80.58;98005.60;116263;1183;60401;-68
2021/10/15 06:55:40;;;;;;;37.20;26.90;;;;;;;5.07;80.33;98003.13;116390;1182;60359;-67
2021/10/15 06:58:09;;;;;;;34.80;24.60;;;;;;;5.20;80.13;98005.09;116411;1184;72893;-71
2021/10/15 07:00:38;;;;;;;28.90;20.30;;;;;;;5.30;80.06;98007.77;116439;1182;69126;-67
2021/10/15 07:03:22;;;;;;;25.70;18.10;;;;;;;5.39;79.84;98006.13;116446;1182;69023;-80
2021/10/15 07:06:06;;;;;;;23.70;16.60;;;;;;;5.47;79.74;98007.77;116494;1184;60341;-69
2021/10/15 07:08:38;;;;;;;22.10;15.70;;;;;;;5.49;79.10;98009.11;116454;1182;60339;-68
2021/10/15 07:11:13;;;;;;;20.60;15.40;;;;;;;5.57;79.23;98008.16;116554;1182;72515;-68
2021/10/15 07:13:42;;;;;;;21.10;16.20;;;;;;;5.68;78.72;98005.25;116441;1184;68461;-70
2021/10/15 07:16:11;;;;;;;25.20;16.40;;;;;;;5.81;78.53;98005.56;116440;1182;69320;-72
2021/10/15 07:18:42;;;;;;;20.90;15.60;;;;;;;5.93;77.50;98005.16;116413;1182;60809;-67
2021/10/15 07:21:11;;;;;;;24.10;16.70;;;;;;;6.14;78.33;98006.55;116544;1182;60315;-68
2021/10/15 07:23:40;;;;;;;21.70;15.60;;;;;;;6.27;77.12;98006.35;116445;1182;72179;-71
2021/10/15 07:26:10;;;;;;;23.30;15.00;;;;;;;6.34;77.15;98003.27;116421;1182;66827;-72
2021/10/15 07:28:39;;;;;;;20.40;15.00;;;;;;;6.50;77.20;97999.75;116390;1182;69044;-72
2021/10/15 07:31:08;;;;;;;21.20;14.70;;;;;;;6.63;77.02;98000.86;116448;1182;60348;-68
2021/10/15 07:33:38;;;;;;;21.60;15.70;;;;;;;6.72;76.19;98000.44;116263;1183;60386;-71
2021/10/15 07:36:08;;;;;;;22.40;16.30;;;;;;;6.84;75.31;97998.56;116388;1181;71759;-68
2021/10/15 07:38:37;;;;;;;24.80;16.50;;;;;;;6.80;75.26;97999.36;116419;1181;68139;-72
2021/10/15 07:41:08;;;;;;;21.70;15.60;;;;;;;6.83;74.61;97998.17;116293;1184;68492;-67
2021/10/15 07:43:37;;;;;;;22.30;15.20;;;;;;;6.80;74.88;98001.55;116384;1183;60350;-71
2021/10/15 07:46:07;;;;;;;25.10;17.70;;;;;;;6.85;74.62;98002.34;116397;1181;60441;-67
2021/10/15 07:48:51;;;;;;;24.10;15.90;;;;;;;6.94;74.74;98004.08;116387;1184;72235;-74
2021/10/15 07:51:42;;;;;;;22.80;16.40;;;;;;;7.08;74.74;98005.81;116353;1182;67561;-69
2021/10/15 07:54:22;;;;;;;20.20;14.20;;;;;;;7.11;73.62;98003.90;116339;1182;69241;-75
2021/10/15 07:56:51;;;;;;;20.90;15.10;;;;;;;7.12;73.12;98003.11;116331;1182;60416;-72
2021/10/15 07:59:21;;;;;;;21.30;14.70;;;;;;;7.18;73.02;98001.02;116425;1182;60349;-67
2021/10/15 08:01:52;;;;;;;19.70;14.70;;;;;;;7.24;73.87;97996.89;116344;1182;72169;-68
2021/10/15 08:04:22;;;;;;;22.80;14.40;;;;;;;7.25;72.82;97991.70;116431;1184;68503;-70
2021/10/15 08:06:53;;;;;;;18.80;14.00;;;;;;;7.37;72.88;97987.04;116150;1174;69211;-76
2021/10/15 08:09:31;;;;;;;21.90;14.10;;;;;;;7.47;72.77;97986.56;116356;1183;60772;-75
2021/10/15 08:12:00;;;;;;;18.70;14.60;;;;;;;7.60;72.43;97986.23;116202;1182;60796;-73
2021/10/15 08:14:29;;;;;;;19.70;14.10;;;;;;;7.58;72.42;97986.46;116408;1182;72176;-68
2021/10/15 08:16:58;;;;;;;21.10;14.70;;;;;;;7.58;72.30;97984.42;116447;1181;67726;-67
2021/10/15 08:19:39;;;;;;;;;;;;;;;7.64;72.60;97985.08;116331;1182;68475;-73
2021/10/15 08:22:09;;;;;;;24.30;15.20;;;;;;;7.73;72.17;97986.58;116366;1181;60417;-73
2021/10/15 08:24:38;;;;;;;23.30;14.90;;;;;;;7.73;72.25;97983.02;116281;1182;60378;-72
2021/10/15 08:27:07;;;;;;;21.70;16.00;;;;;;;7.85;72.16;97983.21;116415;1183;71712;-68
2021/10/15 08:29:39;;;;;;;25.30;16.80;;;;;;;7.91;71.63;97976.01;116296;1181;66639;-71
2021/10/15 08:32:09;;;;;;;23.70;16.90;;;;;;;8.03;71.84;97970.83;116409;1182;68146;-71
2021/10/15 08:34:38;;;;;;;22.20;16.30;;;;;;;8.08;71.51;97968.27;116224;1184;60320;-73
2021/10/15 08:37:08;;;;;;;22.50;17.40;;;;;;;8.08;71.05;97966.84;116241;1183;60369;-69
2021/10/15 08:39:37;;;;;;;21.90;15.20;;;;;;;8.12;70.68;97967.91;116316;1183;71176;-66
2021/10/15 08:42:10;;;;;;;22.40;15.70;;;;;;;8.14;70.54;97968.98;116390;1182;68346;-66
2021/10/15 08:44:45;;;;;;;21.60;15.10;;;;;;;8.04;69.82;97970.82;116318;1182;68810;-68
2021/10/15 08:47:16;;;;;;;20.40;14.80;;;;;;;8.06;70.39;97970.48;116465;1182;60379;-68
2021/10/15 08:50:05;;;;;;;19.30;14.10;;;;;;;8.16;70.71;97969.82;116404;1182;60346;-70
2021/10/15 08:52:34;;;;;;;20.20;14.50;;;;;;;8.22;69.48;97967.23;116426;1182;70504;-69
2021/10/15 08:55:03;;;;;;;16.40;10.60;;;;;;;8.34;68.94;97968.77;116244;1183;67782;-70
2021/10/15 08:57:33;;;;;;;16.20;11.70;;;;;;;8.25;67.18;97964.60;116333;1183;69293;-69
2021/10/15 09:00:22;;;;;;;20.80;14.20;;;;;;;8.40;67.62;97966.89;116356;1183;60407;-69
2021/10/15 09:03:11;;;;;;;19.50;12.60;;;;;;;8.54;67.90;97964.67;116420;1182;60345;-71
2021/10/15 09:05:51;;;;;;;20.80;13.80;;;;;;;8.65;67.16;97953.27;116498;1182;71609;-66
2021/10/15 09:08:21;;;;;;;20.20;14.50;;;;;;;8.73;67.55;97952.19;116436;1182;67724;-70
2021/10/15 09:10:59;;;;;;;22.30;14.80;;;;;;;8.77;67.10;97951.11;116444;1182;67640;-67
2021/10/15 09:13:36;;;;;;;21.90;14.60;;;;;;;8.89;67.31;97956.00;116405;1183;60333;-68
2021/10/15 09:16:07;;;;;;;24.10;16.40;;;;;;;8.97;66.90;97952.64;116408;1182;60293;-71
2021/10/15 09:18:40;;;;;;;22.60;15.20;;;;;;;9.00;66.69;97955.21;116425;1182;72274;-73
2021/10/15 09:21:15;;;;;;;17.80;13.20;;;;;;;8.95;66.89;97953.61;116326;1184;67675;-69
2021/10/15 09:23:48;;;;;;;19.70;14.70;;;;;;;9.08;66.48;97955.80;116386;1182;69751;-74
2021/10/15 09:26:18;;;;;;;22.50;15.10;;;;;;;9.18;66.30;97946.81;116451;1182;60749;-69
2021/10/15 09:28:48;;;;;;;20.30;14.40;;;;;;;9.15;65.83;97944.40;116522;1182;60309;-71
2021/10/15 09:31:17;;;;;;;22.40;15.50;;;;;;;9.22;65.41;97938.46;116428;1179;72169;-70
2021/10/15 09:33:59;;;;;;;22.80;17.30;;;;;;;9.29;66.05;97937.40;116437;1182;68208;-67
2021/10/15 09:36:28;;;;;;;21.40;16.50;;;;;;;9.35;65.48;97941.01;116456;1182;69259;-73
2021/10/15 09:38:57;;;;;;;22.80;15.70;;;;;;;9.58;65.84;97940.64;116351;1183;60341;-71
2021/10/15 09:41:38;;;;;;;23.10;16.40;;;;;;;9.70;65.42;97941.05;116433;1182;60322;-72
2021/10/15 09:44:34;;;;;;;21.60;16.20;;;;;;;9.81;64.72;97939.27;116345;1182;72251;-72
2021/10/15 09:47:12;;;;;;;23.40;16.10;;;;;;;9.83;65.01;97939.92;116474;1182;66707;-68
2021/10/15 09:50:03;;;;;;;19.60;15.00;;;;;;;9.83;63.94;97937.58;116460;1182;69262;-69
2021/10/15 09:52:44;;;;;;;25.20;17.90;;;;;;;9.95;63.88;97933.64;116354;1182;60775;-70
2021/10/15 09:55:17;;;;;;;26.80;18.80;;;;;;;10.14;63.63;97928.62;116450;1182;60280;-72
2021/10/15 09:57:52;;;;;;;24.70;18.90;;;;;;;10.15;63.06;97925.75;116372;1182;70733;-73
2021/10/15 10:00:24;;;;;;;21.70;16.80;;;;;;;10.32;62.73;97921.56;116501;1182;68600;-67
2021/10/15 10:02:54;;;;;;;24.90;18.50;;;;;;;10.32;62.37;97920.23;116456;1181;69150;-67
2021/10/15 10:05:23;;;;;;;;;;;;;;;10.39;63.18;97917.54;116501;1181;60755;-69
2021/10/15 10:07:54;;;;;;;29.60;19.50;;;;;;;10.50;62.32;97911.77;116421;1182;60364;-67
2021/10/15 10:10:31;;;;;;;29.50;21.20;;;;;;;10.65;61.78;97911.85;116469;1182;71184;-69
2021/10/15 10:13:05;;;;;;;;;;;;;;;10.77;62.21;97905.55;116424;1182;67699;-70
2021/10/15 10:15:38;;;;;;;25.70;18.50;;;;;;;10.87;61.19;97902.88;116477;1182;69382;-68
2021/10/15 10:18:15;;;;;;;24.80;19.20;;;;;;;10.83;60.79;97896.58;116192;1182;60420;-67
2021/10/15 10:21:06;;;;;;;26.00;18.20;;;;;;;10.86;61.11;97896.88;116429;1182;60347;-69
2021/10/15 10:23:47;;;;;;;23.10;17.80;;;;;;;10.78;60.56;97896.11;116418;1182;72696;-72
2021/10/15 10:26:21;;;;;;;28.00;20.30;;;;;;;10.87;60.87;97897.80;116412;1182;67446;-71
2021/10/15 10:29:05;;;;;;;24.90;19.60;;;;;;;10.94;60.32;97898.05;116407;1182;68491;-71
2021/10/15 10:31:35;;;;;;;26.70;20.40;;;;;;;10.88;59.75;97890.77;116567;1182;60337;-67
2021/10/15 10:34:19;;;;;;;30.30;20.90;;;;;;;10.90;59.54;97886.74;116363;1173;60386;-68
2021/10/15 10:37:04;;;;;;;23.30;18.50;;;;;;;10.85;59.16;97885.90;116335;1183;71459;-70
2021/10/15 10:40:08;;;;;;;30.20;19.20;;;;;;;10.63;59.92;97883.79;116401;1182;68226;-67
2021/10/15 10:43:06;;;;;;;23.90;17.90;;;;;;;10.76;60.07;97882.23;116447;1182;69294;-73
2021/10/15 10:45:39;;;;;;;22.90;17.80;;;;;;;10.81;60.97;97880.01;116538;1182;60360;-73
2021/10/15 10:48:09;;;;;;;25.20;18.40;;;;;;;10.85;61.10;97878.95;116446;1182;60281;-74
2021/10/15 10:50:38;;;;;;;24.00;17.50;;;;;;;10.87;60.16;97877.45;116418;1174;71877;-70
2021/10/15 10:53:09;;;;;;;25.80;18.80;;;;;;;10.94;60.73;97872.55;116486;1182;67565;-68
2021/10/15 10:55:54;;;;;;;24.80;17.60;;;;;;;11.03;61.18;97868.15;116430;1182;68584;-74
2021/10/15 10:58:34;;;;;;;25.50;18.40;;;;;;;11.01;61.32;97865.59;116450;1182;60444;-69
2021/10/15 11:01:27;;;;;;;24.10;17.20;;;;;;;11.01;60.94;97850.70;116382;1182;60360;-70
2021/10/15 11:04:18;;;;;;;26.10;17.50;;;;;;;11.05;61.09;97851.62;116409;1173;72571;-74
2021/10/15 11:07:06;;;;;;;26.30;17.00;;;;;;;11.04;60.85;97851.73;116414;1182;67751;-71
2021/10/15 11:10:00;;;;;;;23.60;15.40;;;;;;;11.01;61.22;97847.14;116455;1183;68484;-67
2021/10/15 11:12:29;;;;;;;26.60;17.10;;;;;;;10.88;61.26;97846.25;116483;1181;60364;-66
2021/10/15 11:15:10;;;;;;;26.10;16.50;;;;;;;10.66;61.45;97846.30;116494;1182;60355;-68
2021/10/15 11:17:49;;;;;;;25.80;18.10;;;;;;;10.62;61.93;97835.33;116424;1182;72801;-69
2021/10/15 11:20:30;;;;;;;29.30;18.50;;;;;;;10.57;62.51;97837.40;116355;1182;67791;-67
2021/10/15 11:23:11;;;;;;;26.20;17.60;;;;;;;10.64;62.18;97832.20;116287;1182;69229;-69
2021/10/15 11:25:48;;;;;;;22.70;16.80;;;;;;;10.58;62.09;97827.80;116534;1181;60306;-74
2021/10/15 11:28:20;;;;;;;30.30;16.90;;;;;;;10.53;62.41;97819.92;116382;1182;60363;-72
2021/10/15 11:30:52;;;;;;;23.10;17.60;;;;;;;10.48;62.39;97818.86;116495;1181;71658;-73
2021/10/15 11:33:24;;;;;;;22.30;14.10;;;;;;;10.47;62.41;97812.23;116557;1182;68400;-68
2021/10/15 11:35:58;;;;;;;21.60;16.20;;;;;;;10.35;63.10;97807.27;116386;1182;68597;-72
2021/10/15 11:38:32;;;;;;;20.20;14.90;;;;;;;10.44;63.35;97805.04;116310;1184;60361;-72
2021/10/15 11:41:11;;;;;;;23.80;16.80;;;;;;;10.49;63.25;97802.39;116219;1183;60724;-67
2021/10/15 11:43:43;;;;;;;22.40;17.00;;;;;;;10.60;62.67;97801.96;116415;1182;71961;-70
2021/10/15 11:46:15;;;;;;;25.20;16.60;;;;;;;10.62;62.17;97798.45;116484;1182;68224;-69
2021/10/15 11:48:48;;;;;;;25.60;16.60;;;;;;;10.54;62.67;97800.65;116137;1184;69300;-69
2021/10/15 11:51:18;;;;;;;22.80;15.50;;;;;;;10.61;62.50;97794.67;116318;1182;60422;-68
2021/10/15 11:53:51;;;;;;;21.00;15.60;;;;;;;10.61;62.81;97789.30;116465;1181;60389;-69